Weather reports worldwide

Advertisment
Großer Arber, Germany (10791): temperature & dewpoint: 12.01.2020 12:00:00 - 18.01.2020 12:00:00 (CET)Großer Arber, Germany (10791): wind speed & gusts: 12.01.2020 12:00:00 - 18.01.2020 12:00:00 (CET)Großer Arber, Germany (10791): wind direction: 12.01.2020 12:00:00 - 18.01.2020 12:00:00 (CET)Großer Arber, Germany (10791): visibility: 12.01.2020 12:00:00 - 18.01.2020 12:00:00 (CET)Großer Arber, Germany (10791): sunshine duration: 12.01.2020 12:00:00 - 18.01.2020 12:00:00 (CET)Großer Arber, Germany (10791): precipitation: 12.01.2020 12:00:00 - 18.01.2020 12:00:00 (CET)
Date & Time tt [°C] td [°C] ff [km/h] ff [kn] fx [km/h] fx [kn] dd vv [km] sd [min] rr [mm]
18.01.2020 12:00:00 -3,3 -3,8 28 15 50 27 W 0,1 0 0,0
18.01.2020 11:00:00 -3,3 -3,8 31 17 44 24 W 0,1 0 0,0
18.01.2020 10:00:00 -2,9 -3,3 23 12 44 24 WNW - 0 0,0
18.01.2020 09:00:00 -2,6 -3,0 31 17 47 26 WNW 0,1 0 0,0
18.01.2020 08:00:00 -2,0 -2,2 25 13 44 24 WNW - 0 0,8
18.01.2020 07:00:00 -1,3 -1,4 22 12 38 21 WNW 0,1 0 0,8
18.01.2020 06:00:00 -1,1 -1,2 22 12 41 22 WNW - 0 0,1
18.01.2020 05:00:00 -1,1 -1,3 24 13 42 23 WNW - 0 0,3
18.01.2020 04:00:00 -1,1 -1,2 23 12 39 21 WNW 0,1 0 0,3
18.01.2020 03:00:00 -0,5 -0,5 24 13 39 21 W 0,1 0 0,1
18.01.2020 02:00:00 -0,3 -0,3 30 16 40 22 W - 0 0,0
18.01.2020 01:00:00 -0,5 -0,5 31 17 39 21 W 0,1 0 0,4
18.01.2020 00:00:00 -0,9 -1,1 30 16 37 20 SW - 0 0,0
17.01.2020 23:00:00 -0,6 -0,9 29 16 34 18 SW 2,6 0 0,0
17.01.2020 22:00:00 -0,6 -0,9 31 17 35 19 SW 0,5 0 0,0
17.01.2020 21:00:00 0,0 -0,3 28 15 44 24 WSW 10 0 0,0
17.01.2020 20:00:00 -0,9 -1,3 36 19 44 24 SW 2,4 0 0,0
17.01.2020 19:00:00 -1,3 -1,6 31 17 39 21 SW 0,3 0 0,0
17.01.2020 18:00:00 -1,3 -1,6 33 18 45 25 WSW 2,5 0 0,0
17.01.2020 17:00:00 -1,1 -1,5 37 20 45 24 SW 7 7 0,0
17.01.2020 16:00:00 -0,2 -0,5 32 17 48 26 WSW 0,5 6 0,0
17.01.2020 15:00:00 -0,3 -0,5 36 19 55 30 W 0,2 3 0,0
17.01.2020 14:00:00 -1,3 -1,6 34 19 49 26 SW - 6 0,0
17.01.2020 13:00:00 -1,6 -1,9 36 19 54 29 SW - 12 0,0
17.01.2020 12:00:00 -0,8 -2,2 26 14 40 21 SSW 1,4 56 0,0
17.01.2020 11:00:00 -0,4 -3,9 32 17 47 26 S 58 60 0,0
17.01.2020 10:00:00 -1,0 -2,8 36 19 53 29 S 27 60 0,0
17.01.2020 09:00:00 -0,5 -2,7 34 18 51 28 S 56 45 0,0
17.01.2020 08:00:00 -0,2 -3,0 39 21 50 27 S 75 0 0,0
17.01.2020 07:00:00 0,1 -2,7 32 17 51 28 S 75 0 0,0
17.01.2020 06:00:00 0,7 -2,6 38 20 45 24 SSE 75 0 0,0
17.01.2020 05:00:00 1,6 -2,7 34 18 45 24 SSE 75 0 0,0
17.01.2020 04:00:00 1,4 -2,3 32 17 44 24 SE 75 0 0,0
17.01.2020 03:00:00 1,9 -2,3 34 19 47 26 SE 75 0 0,0
17.01.2020 02:00:00 1,2 -1,6 35 19 53 29 SE 75 0 0,0
17.01.2020 01:00:00 1,5 -1,3 27 15 38 21 SE 75 0 0,0
17.01.2020 00:00:00 2,0 -0,8 27 15 39 21 ESE 75 0 0,0
16.01.2020 23:00:00 2,2 -0,4 28 15 42 23 SE 75 0 0,0
16.01.2020 22:00:00 2,6 -0,5 33 18 41 22 SE 75 0 0,0
16.01.2020 21:00:00 2,5 0,4 33 18 40 22 SE 75 0 0,0
16.01.2020 20:00:00 2,0 1,0 23 12 28 15 SE 45 0 0,0
16.01.2020 19:00:00 2,6 0,9 19 11 22 12 ESE 75 0 0,0
16.01.2020 18:00:00 2,2 1,6 19 10 22 12 SE 67 0 0,0
16.01.2020 17:00:00 2,6 2,4 14 8 19 11 SE 0,1 39 0,0
16.01.2020 16:00:00 4,4 1,2 6 3 12 7 SSE 75 60 0,0
16.01.2020 15:00:00 4,4 1,1 8 4 13 7 SSW 75 49 0,0
16.01.2020 14:00:00 3,4 1,5 8 4 11 6 SSW 74 16 0,0
16.01.2020 13:00:00 2,8 1,9 6 4 14 7 S 28 3 0,1
16.01.2020 12:00:00 2,7 1,6 10 5 13 7 S 21 0 0,0
16.01.2020 11:00:00 2,5 1,6 4 2 10 5 SSW 17 8 0,0
16.01.2020 10:00:00 2,1 1,4 6 3 15 8 WNW 0,1 4 0,1
16.01.2020 09:00:00 1,5 1,4 14 7 29 16 NW 0,1 0 0,0
16.01.2020 08:00:00 1,2 1,0 20 11 35 19 WNW 0,1 0 0,0
16.01.2020 07:00:00 1,0 0,2 28 15 42 23 W 17 0 0,0
16.01.2020 06:00:00 1,4 0,6 31 17 48 26 W 8 0 0,0
16.01.2020 05:00:00 1,6 -0,4 36 20 53 28 W 46 0 0,0
16.01.2020 04:00:00 1,5 -0,8 40 22 53 29 W 49 0 0,0
16.01.2020 03:00:00 1,8 -0,7 41 22 59 32 W 48 0 0,0
16.01.2020 02:00:00 1,2 -1,6 44 24 61 33 W 60 0 0,0
16.01.2020 01:00:00 1,1 -1,6 46 25 65 35 WSW 39 0 0,0
16.01.2020 00:00:00 1,3 -1,7 47 26 67 36 W 60 0 0,0
15.01.2020 23:00:00 1,2 -1,9 44 24 60 32 W 55 0 0,0
15.01.2020 22:00:00 0,6 -3,1 45 24 61 33 WSW 58 0 0,0
15.01.2020 21:00:00 1,5 -2,6 48 26 66 36 W 57 0 0,0
15.01.2020 20:00:00 2,2 -4,2 47 25 57 31 W 74 0 0,0
15.01.2020 19:00:00 3,3 -7,3 35 19 42 23 WSW 75 0 0,0
15.01.2020 18:00:00 4,3 -8,3 24 13 33 18 W 75 0 0,0
15.01.2020 17:00:00 4,6 -14,7 10 6 15 8 W 75 46 0,0
15.01.2020 16:00:00 7,2 -9,8 7 4 14 7 SSW 75 60 0,0
15.01.2020 15:00:00 8,3 -15,4 12 7 20 11 SW 75 60 0,0
15.01.2020 14:00:00 8,5 -15,5 15 8 19 11 S 59 60 0,0
15.01.2020 13:00:00 8,0 -15,9 16 8 22 12 S 75 60 0,0
15.01.2020 12:00:00 8,2 -15,9 18 10 27 15 S 75 60 0,0
15.01.2020 11:00:00 8,2 -16,3 22 12 28 15 S 75 60 0,0
15.01.2020 10:00:00 7,8 -16,2 18 10 26 14 S 75 60 0,0
15.01.2020 09:00:00 6,8 -16,4 21 12 31 17 S 75 38 0,0
15.01.2020 08:00:00 6,3 -16,6 27 15 33 18 S 75 0 0,0
15.01.2020 07:00:00 6,0 -16,0 23 12 35 19 S 75 0 0,0
15.01.2020 06:00:00 5,6 -15,1 29 16 39 21 S 75 0 0,0
15.01.2020 05:00:00 5,0 -13,8 32 17 38 20 S 75 0 0,0
15.01.2020 04:00:00 4,9 -14,1 25 13 39 21 SSW 75 0 0,0
15.01.2020 03:00:00 4,2 -12,1 25 13 41 22 SSW 75 0 0,0
15.01.2020 02:00:00 3,0 -9,7 31 17 49 27 SW 75 0 0,0
15.01.2020 01:00:00 3,1 -5,6 41 22 52 28 WSW 75 0 0,0
15.01.2020 00:00:00 2,6 -8,2 39 21 47 26 SW 75 0 0,0
14.01.2020 23:00:00 2,5 -10,0 38 21 45 24 SW 75 0 0,0
14.01.2020 22:00:00 1,4 -9,2 35 19 45 24 SSW 75 0 0,0
14.01.2020 21:00:00 1,5 -8,6 36 20 49 26 SSW 75 0 0,0
14.01.2020 20:00:00 1,1 -8,5 36 19 45 25 SW 75 0 0,0
14.01.2020 19:00:00 1,2 -7,8 35 19 42 23 SSW 75 0 0,0
14.01.2020 18:00:00 0,3 -8,4 34 18 41 22 SW 75 0 0,0
14.01.2020 17:00:00 0,2 -8,9 33 18 47 25 SW 75 0 0,0
14.01.2020 16:00:00 0,3 -7,9 35 19 53 28 SW 75 36 0,0
14.01.2020 15:00:00 0,9 -6,6 43 23 63 34 SW 72 60 0,0
14.01.2020 14:00:00 0,8 -6,0 44 24 59 32 SW 51 60 0,0
14.01.2020 13:00:00 -0,4 -4,4 38 21 52 28 SW 75 60 0,0
14.01.2020 12:00:00 0,1 -3,4 39 21 52 28 SW 75 50 0,0
14.01.2020 11:00:00 -0,7 -2,7 32 17 45 24 SSW 75 55 0,0
14.01.2020 10:00:00 -1,3 -2,6 29 16 48 26 SSW 75 30 0,0
14.01.2020 09:00:00 -1,1 -2,1 31 17 46 25 S 75 45 0,0
14.01.2020 08:00:00 -1,4 -2,3 34 19 49 27 S 75 0 0,0
14.01.2020 07:00:00 -2,3 -3,0 34 18 45 24 S 75 0 0,0
14.01.2020 06:00:00 -2,9 -3,8 26 14 35 19 S 75 0 0,0
14.01.2020 05:00:00 -2,8 -3,5 23 12 29 15 S 75 0 0,0
14.01.2020 04:00:00 -2,2 -2,8 18 10 33 18 SSW 75 0 0,0
14.01.2020 03:00:00 -1,8 -2,3 28 15 37 20 SW 75 0 0,0
14.01.2020 02:00:00 -2,4 -3,0 31 17 44 24 SW 75 0 0,0
14.01.2020 01:00:00 -1,9 -2,1 28 15 40 22 SSW 0,1 0 0,0
14.01.2020 00:00:00 -1,6 -1,9 19 11 40 22 S 0,1 0 0,0
13.01.2020 23:00:00 -1,5 -1,8 25 14 39 21 S 0,1 0 0,0
13.01.2020 22:00:00 -1,4 -1,7 19 11 38 20 S 0,1 0 0,0
13.01.2020 21:00:00 -1,3 -1,5 21 11 34 18 SSW 0,4 0 0,0
13.01.2020 20:00:00 -1,6 -1,9 15 8 32 17 SSW 54 0 0,0
13.01.2020 19:00:00 -1,8 -2,1 21 11 31 17 SW 75 0 0,0
13.01.2020 18:00:00 -1,5 -1,7 14 8 27 14 SW 0,9 0 0,0
13.01.2020 17:00:00 -1,4 -1,6 18 10 26 14 WSW 4,2 0 0,0
13.01.2020 16:00:00 -1,1 -1,1 16 8 24 13 SW 0,1 0 0,0
13.01.2020 15:00:00 -0,9 -0,9 14 8 21 12 SW 0,1 0 0,0
13.01.2020 14:00:00 -1,2 -1,3 8 4 18 10 S 0,1 0 0,0
13.01.2020 13:00:00 -1,2 -1,5 8 4 17 9 S 0,1 0 0,0
13.01.2020 12:00:00 -1,1 -1,5 11 6 17 9 SW 0,2 0 0,0
13.01.2020 11:00:00 -1,1 -1,4 10 5 29 15 SW 0,3 0 0,0
13.01.2020 10:00:00 -0,9 -1,3 16 9 29 16 W 0,2 0 0,0
13.01.2020 09:00:00 -1,2 -1,6 23 12 38 20 W 33 0 0,0
13.01.2020 08:00:00 -1,5 -1,8 28 15 36 20 W 0,6 0 0,0
13.01.2020 07:00:00 -1,6 -1,9 32 17 45 25 W 0,5 0 0,0
13.01.2020 06:00:00 -1,5 -1,8 34 18 47 25 W 0,8 0 0,0
13.01.2020 05:00:00 -1,2 -1,4 39 21 52 28 W 0,2 0 0,0
13.01.2020 04:00:00 -1,3 -1,4 37 20 61 33 W 0,1 0 0,0
13.01.2020 03:00:00 -0,5 -0,5 42 23 54 29 W 0,1 0 0,0
13.01.2020 02:00:00 -1,7 -1,9 40 21 59 32 W 0,1 0 0,0
13.01.2020 01:00:00 -1,2 -1,4 46 25 61 33 W 0,1 0 0,0
13.01.2020 00:00:00 -1,4 -1,4 42 23 60 32 W 0,1 0 0,0
12.01.2020 23:00:00 -0,1 -0,2 42 23 56 31 W 0,1 0 0,0
12.01.2020 22:00:00 -1,1 -1,1 29 16 53 29 WNW 0,1 0 0,0
12.01.2020 21:00:00 -2,2 -7,7 29 16 63 34 W 60 0 0,0
12.01.2020 20:00:00 -0,7 -13,6 47 25 61 33 WSW 72 0 0,0
12.01.2020 19:00:00 -1,1 -11,5 46 25 58 32 WSW 75 0 0,0
12.01.2020 18:00:00 -0,2 -12,3 46 25 56 30 WSW 75 0 0,0
12.01.2020 17:00:00 0,1 -14,8 46 25 57 31 WSW 75 0 0,0
12.01.2020 16:00:00 -1,8 -7,8 40 22 47 26 SW 75 34 0,0
12.01.2020 15:00:00 -0,2 -10,7 32 18 41 22 SW 67 48 0,0
12.01.2020 14:00:00 0,1 -9,2 27 15 31 17 SSW 65 60 0,0
12.01.2020 13:00:00 0,5 -8,6 17 9 26 14 SSW 71 60 0,0
12.01.2020 12:00:00 3,0 -12,8 16 9 26 14 SW 75 60 0,0

tt = temperature
td = dewpoint
ff = wind speed
fx = gusts
dd = wind direction
vv = visibility
sd = sunshine duration
rr = precipitation

Next stations